sensor_id;sensor_type;location;lat;lon;timestamp;P1;durP1;ratioP1;P2;durP2;ratioP2
3712;SDS011;1872;51.406;6.856;2024-02-26T00:01:42;3.63;;;3.30;;
3712;SDS011;1872;51.406;6.856;2024-02-26T00:04:11;3.40;;;3.20;;
3712;SDS011;1872;51.406;6.856;2024-02-26T00:06:38;3.87;;;3.20;;
3712;SDS011;1872;51.406;6.856;2024-02-26T00:09:07;3.90;;;3.60;;
3712;SDS011;1872;51.406;6.856;2024-02-26T00:11:33;3.40;;;3.10;;
3712;SDS011;1872;51.406;6.856;2024-02-26T00:14:00;3.50;;;2.67;;
3712;SDS011;1872;51.406;6.856;2024-02-26T00:16:26;3.30;;;3.10;;
3712;SDS011;1872;51.406;6.856;2024-02-26T00:18:51;3.70;;;3.03;;
3712;SDS011;1872;51.406;6.856;2024-02-26T00:21:17;3.90;;;2.97;;
3712;SDS011;1872;51.406;6.856;2024-02-26T00:23:43;2.93;;;2.50;;
3712;SDS011;1872;51.406;6.856;2024-02-26T00:26:09;2.77;;;2.50;;
3712;SDS011;1872;51.406;6.856;2024-02-26T00:28:35;3.13;;;2.93;;
3712;SDS011;1872;51.406;6.856;2024-02-26T00:31:02;3.70;;;3.40;;
3712;SDS011;1872;51.406;6.856;2024-02-26T00:33:28;4.50;;;3.50;;
3712;SDS011;1872;51.406;6.856;2024-02-26T00:35:54;3.80;;;3.43;;
3712;SDS011;1872;51.406;6.856;2024-02-26T00:38:20;3.37;;;3.17;;
3712;SDS011;1872;51.406;6.856;2024-02-26T00:44:07;3.30;;;3.07;;
3712;SDS011;1872;51.406;6.856;2024-02-26T00:46:33;3.20;;;2.93;;
3712;SDS011;1872;51.406;6.856;2024-02-26T00:48:59;3.03;;;2.83;;
3712;SDS011;1872;51.406;6.856;2024-02-26T00:51:25;3.10;;;2.80;;
3712;SDS011;1872;51.406;6.856;2024-02-26T00:53:51;3.30;;;3.00;;
3712;SDS011;1872;51.406;6.856;2024-02-26T00:56:17;3.23;;;3.00;;
3712;SDS011;1872;51.406;6.856;2024-02-26T00:58:42;2.87;;;2.67;;
3712;SDS011;1872;51.406;6.856;2024-02-26T01:01:08;3.10;;;2.90;;
3712;SDS011;1872;51.406;6.856;2024-02-26T01:03:34;3.03;;;2.83;;
3712;SDS011;1872;51.406;6.856;2024-02-26T01:06:00;3.17;;;2.87;;
3712;SDS011;1872;51.406;6.856;2024-02-26T01:08:26;2.60;;;2.40;;
3712;SDS011;1872;51.406;6.856;2024-02-26T01:10:51;3.10;;;2.40;;
3712;SDS011;1872;51.406;6.856;2024-02-26T01:13:17;3.00;;;2.50;;
3712;SDS011;1872;51.406;6.856;2024-02-26T01:15:43;3.03;;;2.70;;
3712;SDS011;1872;51.406;6.856;2024-02-26T01:18:09;3.00;;;2.67;;
3712;SDS011;1872;51.406;6.856;2024-02-26T01:20:34;2.80;;;2.57;;
3712;SDS011;1872;51.406;6.856;2024-02-26T01:23:02;3.30;;;3.00;;
3712;SDS011;1872;51.406;6.856;2024-02-26T01:25:27;3.00;;;2.80;;
3712;SDS011;1872;51.406;6.856;2024-02-26T01:27:53;2.90;;;2.70;;
3712;SDS011;1872;51.406;6.856;2024-02-26T01:30:19;2.53;;;2.43;;
3712;SDS011;1872;51.406;6.856;2024-02-26T01:32:45;2.63;;;2.43;;
3712;SDS011;1872;51.406;6.856;2024-02-26T01:35:11;3.03;;;2.77;;
3712;SDS011;1872;51.406;6.856;2024-02-26T01:37:37;4.13;;;2.57;;
3712;SDS011;1872;51.406;6.856;2024-02-26T01:40:03;4.03;;;2.90;;
3712;SDS011;1872;51.406;6.856;2024-02-26T01:42:29;2.93;;;2.60;;
3712;SDS011;1872;51.406;6.856;2024-02-26T01:44:57;3.17;;;2.73;;
3712;SDS011;1872;51.406;6.856;2024-02-26T01:47:23;3.30;;;3.00;;
3712;SDS011;1872;51.406;6.856;2024-02-26T01:49:49;3.47;;;3.07;;
3712;SDS011;1872;51.406;6.856;2024-02-26T01:52:15;2.80;;;2.60;;
3712;SDS011;1872;51.406;6.856;2024-02-26T01:54:42;2.87;;;2.67;;
3712;SDS011;1872;51.406;6.856;2024-02-26T01:57:11;2.73;;;2.53;;
3712;SDS011;1872;51.406;6.856;2024-02-26T01:59:37;2.83;;;2.63;;
3712;SDS011;1872;51.406;6.856;2024-02-26T02:02:06;2.83;;;2.63;;
3712;SDS011;1872;51.406;6.856;2024-02-26T02:04:35;3.20;;;2.93;;
3712;SDS011;1872;51.406;6.856;2024-02-26T02:07:05;3.97;;;2.90;;
3712;SDS011;1872;51.406;6.856;2024-02-26T02:09:31;3.00;;;2.77;;
3712;SDS011;1872;51.406;6.856;2024-02-26T02:11:57;2.47;;;2.33;;
3712;SDS011;1872;51.406;6.856;2024-02-26T02:14:24;3.00;;;2.80;;
3712;SDS011;1872;51.406;6.856;2024-02-26T02:23:14;2.40;;;2.00;;
3712;SDS011;1872;51.406;6.856;2024-02-26T02:25:40;2.20;;;2.10;;
3712;SDS011;1872;51.406;6.856;2024-02-26T02:28:06;2.90;;;2.70;;
3712;SDS011;1872;51.406;6.856;2024-02-26T02:30:31;3.13;;;2.90;;
3712;SDS011;1872;51.406;6.856;2024-02-26T02:32:58;2.80;;;2.60;;
3712;SDS011;1872;51.406;6.856;2024-02-26T02:35:24;2.60;;;2.40;;
3712;SDS011;1872;51.406;6.856;2024-02-26T02:37:51;3.27;;;3.00;;
3712;SDS011;1872;51.406;6.856;2024-02-26T02:40:17;2.80;;;2.60;;
3712;SDS011;1872;51.406;6.856;2024-02-26T02:42:43;2.67;;;2.50;;
3712;SDS011;1872;51.406;6.856;2024-02-26T02:45:09;2.47;;;2.27;;
3712;SDS011;1872;51.406;6.856;2024-02-26T02:47:38;2.90;;;2.70;;
3712;SDS011;1872;51.406;6.856;2024-02-26T02:50:04;4.23;;;2.87;;
3712;SDS011;1872;51.406;6.856;2024-02-26T02:52:30;2.87;;;2.67;;
3712;SDS011;1872;51.406;6.856;2024-02-26T02:54:56;4.40;;;2.67;;
3712;SDS011;1872;51.406;6.856;2024-02-26T02:57:21;3.20;;;2.90;;
3712;SDS011;1872;51.406;6.856;2024-02-26T02:59:47;3.10;;;2.90;;
3712;SDS011;1872;51.406;6.856;2024-02-26T03:02:13;3.03;;;2.83;;
3712;SDS011;1872;51.406;6.856;2024-02-26T03:08:01;3.03;;;2.83;;
3712;SDS011;1872;51.406;6.856;2024-02-26T03:10:27;3.13;;;2.93;;
3712;SDS011;1872;51.406;6.856;2024-02-26T03:12:53;3.40;;;3.00;;
3712;SDS011;1872;51.406;6.856;2024-02-26T03:15:19;3.20;;;3.00;;
3712;SDS011;1872;51.406;6.856;2024-02-26T03:17:45;3.80;;;3.40;;
3712;SDS011;1872;51.406;6.856;2024-02-26T03:20:10;4.10;;;3.80;;
3712;SDS011;1872;51.406;6.856;2024-02-26T03:22:38;3.97;;;3.60;;
3712;SDS011;1872;51.406;6.856;2024-02-26T03:30:50;6.03;;;3.53;;
3712;SDS011;1872;51.406;6.856;2024-02-26T03:33:16;3.87;;;3.57;;
3712;SDS011;1872;51.406;6.856;2024-02-26T03:35:41;4.30;;;4.00;;
3712;SDS011;1872;51.406;6.856;2024-02-26T03:38:07;4.10;;;3.80;;
3712;SDS011;1872;51.406;6.856;2024-02-26T03:40:33;3.80;;;3.57;;
3712;SDS011;1872;51.406;6.856;2024-02-26T03:42:58;4.30;;;3.37;;
3712;SDS011;1872;51.406;6.856;2024-02-26T03:45:24;4.07;;;3.77;;
3712;SDS011;1872;51.406;6.856;2024-02-26T03:47:51;4.30;;;3.90;;
3712;SDS011;1872;51.406;6.856;2024-02-26T03:50:16;3.53;;;3.13;;
3712;SDS011;1872;51.406;6.856;2024-02-26T03:52:42;4.27;;;3.87;;
3712;SDS011;1872;51.406;6.856;2024-02-26T03:55:09;4.13;;;3.83;;
3712;SDS011;1872;51.406;6.856;2024-02-26T03:57:35;4.60;;;4.20;;
3712;SDS011;1872;51.406;6.856;2024-02-26T04:00:02;4.87;;;4.40;;
3712;SDS011;1872;51.406;6.856;2024-02-26T04:02:28;4.53;;;4.13;;
3712;SDS011;1872;51.406;6.856;2024-02-26T04:04:54;4.70;;;4.30;;
3712;SDS011;1872;51.406;6.856;2024-02-26T04:07:19;5.67;;;4.50;;
3712;SDS011;1872;51.406;6.856;2024-02-26T04:09:45;4.40;;;4.00;;
3712;SDS011;1872;51.406;6.856;2024-02-26T04:12:11;4.30;;;3.90;;
3712;SDS011;1872;51.406;6.856;2024-02-26T04:14:37;4.17;;;3.70;;
3712;SDS011;1872;51.406;6.856;2024-02-26T04:17:03;3.73;;;3.43;;
3712;SDS011;1872;51.406;6.856;2024-02-26T04:19:28;4.40;;;4.00;;
3712;SDS011;1872;51.406;6.856;2024-02-26T04:21:54;4.40;;;4.00;;
3712;SDS011;1872;51.406;6.856;2024-02-26T04:24:20;3.87;;;3.67;;
3712;SDS011;1872;51.406;6.856;2024-02-26T04:30:07;6.10;;;4.30;;
3712;SDS011;1872;51.406;6.856;2024-02-26T04:32:34;4.20;;;3.80;;
3712;SDS011;1872;51.406;6.856;2024-02-26T04:35:01;4.43;;;4.03;;
3712;SDS011;1872;51.406;6.856;2024-02-26T04:37:27;4.47;;;4.17;;
3712;SDS011;1872;51.406;6.856;2024-02-26T04:39:59;4.50;;;4.10;;
3712;SDS011;1872;51.406;6.856;2024-02-26T04:42:25;4.10;;;3.80;;
3712;SDS011;1872;51.406;6.856;2024-02-26T04:44:51;6.87;;;4.30;;
3712;SDS011;1872;51.406;6.856;2024-02-26T04:47:18;4.80;;;4.37;;
3712;SDS011;1872;51.406;6.856;2024-02-26T04:49:43;4.43;;;4.03;;
3712;SDS011;1872;51.406;6.856;2024-02-26T04:52:09;5.10;;;4.40;;
3712;SDS011;1872;51.406;6.856;2024-02-26T04:54:39;4.13;;;3.80;;
3712;SDS011;1872;51.406;6.856;2024-02-26T04:57:05;4.10;;;3.80;;
3712;SDS011;1872;51.406;6.856;2024-02-26T04:59:30;4.20;;;3.80;;
3712;SDS011;1872;51.406;6.856;2024-02-26T05:01:56;4.80;;;4.40;;
3712;SDS011;1872;51.406;6.856;2024-02-26T05:04:22;6.23;;;4.27;;
3712;SDS011;1872;51.406;6.856;2024-02-26T05:06:47;4.13;;;3.83;;
3712;SDS011;1872;51.406;6.856;2024-02-26T05:09:13;5.67;;;4.80;;
3712;SDS011;1872;51.406;6.856;2024-02-26T05:11:39;3.97;;;3.67;;
3712;SDS011;1872;51.406;6.856;2024-02-26T05:14:05;4.17;;;3.77;;
3712;SDS011;1872;51.406;6.856;2024-02-26T05:16:31;5.50;;;4.53;;
3712;SDS011;1872;51.406;6.856;2024-02-26T05:18:57;4.27;;;3.87;;
3712;SDS011;1872;51.406;6.856;2024-02-26T05:21:23;4.20;;;3.90;;
3712;SDS011;1872;51.406;6.856;2024-02-26T05:23:50;4.63;;;4.23;;
3712;SDS011;1872;51.406;6.856;2024-02-26T05:26:22;5.90;;;4.43;;
3712;SDS011;1872;51.406;6.856;2024-02-26T05:28:48;4.60;;;4.30;;
3712;SDS011;1872;51.406;6.856;2024-02-26T05:31:14;4.50;;;4.10;;
3712;SDS011;1872;51.406;6.856;2024-02-26T05:33:41;4.80;;;4.30;;
3712;SDS011;1872;51.406;6.856;2024-02-26T05:36:06;7.20;;;4.70;;
3712;SDS011;1872;51.406;6.856;2024-02-26T05:38:32;5.47;;;4.63;;
3712;SDS011;1872;51.406;6.856;2024-02-26T05:40:58;4.70;;;4.30;;
3712;SDS011;1872;51.406;6.856;2024-02-26T05:43:27;5.93;;;4.80;;
3712;SDS011;1872;51.406;6.856;2024-02-26T05:45:53;6.77;;;5.57;;
3712;SDS011;1872;51.406;6.856;2024-02-26T05:48:19;4.90;;;4.50;;
3712;SDS011;1872;51.406;6.856;2024-02-26T05:50:45;6.23;;;4.20;;
3712;SDS011;1872;51.406;6.856;2024-02-26T05:53:11;5.30;;;4.80;;
3712;SDS011;1872;51.406;6.856;2024-02-26T05:55:37;7.17;;;4.77;;
3712;SDS011;1872;51.406;6.856;2024-02-26T05:58:03;5.40;;;4.43;;
3712;SDS011;1872;51.406;6.856;2024-02-26T06:00:29;4.93;;;4.33;;
3712;SDS011;1872;51.406;6.856;2024-02-26T06:02:54;6.17;;;5.20;;
3712;SDS011;1872;51.406;6.856;2024-02-26T06:08:42;5.07;;;4.67;;
3712;SDS011;1872;51.406;6.856;2024-02-26T06:11:08;6.37;;;5.20;;
3712;SDS011;1872;51.406;6.856;2024-02-26T06:13:34;5.63;;;4.87;;
3712;SDS011;1872;51.406;6.856;2024-02-26T06:16:00;5.63;;;5.10;;
3712;SDS011;1872;51.406;6.856;2024-02-26T06:18:26;5.80;;;5.20;;
3712;SDS011;1872;51.406;6.856;2024-02-26T06:20:51;5.90;;;5.40;;
3712;SDS011;1872;51.406;6.856;2024-02-26T06:23:18;8.37;;;5.47;;
3712;SDS011;1872;51.406;6.856;2024-02-26T06:25:44;5.70;;;5.23;;
3712;SDS011;1872;51.406;6.856;2024-02-26T06:28:09;5.80;;;5.20;;
3712;SDS011;1872;51.406;6.856;2024-02-26T06:30:39;6.67;;;5.40;;
3712;SDS011;1872;51.406;6.856;2024-02-26T06:33:05;6.53;;;5.60;;
3712;SDS011;1872;51.406;6.856;2024-02-26T06:35:31;6.00;;;5.40;;
3712;SDS011;1872;51.406;6.856;2024-02-26T06:37:57;8.40;;;5.30;;
3712;SDS011;1872;51.406;6.856;2024-02-26T06:40:22;6.73;;;5.67;;
3712;SDS011;1872;51.406;6.856;2024-02-26T06:42:48;6.17;;;5.57;;
3712;SDS011;1872;51.406;6.856;2024-02-26T06:45:15;6.87;;;5.13;;
3712;SDS011;1872;51.406;6.856;2024-02-26T06:47:41;7.00;;;5.50;;
3712;SDS011;1872;51.406;6.856;2024-02-26T06:50:08;5.90;;;5.40;;
3712;SDS011;1872;51.406;6.856;2024-02-26T06:55:27;7.30;;;5.43;;
3712;SDS011;1872;51.406;6.856;2024-02-26T06:57:53;5.10;;;4.33;;
3712;SDS011;1872;51.406;6.856;2024-02-26T07:00:19;5.93;;;5.33;;
3712;SDS011;1872;51.406;6.856;2024-02-26T07:02:44;5.90;;;5.30;;
3712;SDS011;1872;51.406;6.856;2024-02-26T07:05:11;5.83;;;5.33;;
3712;SDS011;1872;51.406;6.856;2024-02-26T07:07:37;6.67;;;6.00;;
3712;SDS011;1872;51.406;6.856;2024-02-26T07:10:03;5.83;;;5.30;;
3712;SDS011;1872;51.406;6.856;2024-02-26T07:12:30;6.53;;;5.40;;
3712;SDS011;1872;51.406;6.856;2024-02-26T07:14:56;7.40;;;5.73;;
3712;SDS011;1872;51.406;6.856;2024-02-26T07:17:23;6.57;;;5.78;;
3712;SDS011;1872;51.406;6.856;2024-02-26T07:19:49;6.37;;;5.77;;
3712;SDS011;1872;51.406;6.856;2024-02-26T07:22:14;7.10;;;6.40;;
3712;SDS011;1872;51.406;6.856;2024-02-26T07:24:40;6.10;;;5.37;;
3712;SDS011;1872;51.406;6.856;2024-02-26T07:27:06;6.50;;;5.80;;
3712;SDS011;1872;51.406;6.856;2024-02-26T07:29:32;6.43;;;5.70;;
3712;SDS011;1872;51.406;6.856;2024-02-26T07:31:58;5.73;;;5.10;;
3712;SDS011;1872;51.406;6.856;2024-02-26T07:34:24;6.10;;;5.60;;
3712;SDS011;1872;51.406;6.856;2024-02-26T07:36:54;5.73;;;5.10;;
3712;SDS011;1872;51.406;6.856;2024-02-26T07:39:22;6.10;;;5.00;;
3712;SDS011;1872;51.406;6.856;2024-02-26T07:41:48;6.23;;;5.37;;
3712;SDS011;1872;51.406;6.856;2024-02-26T07:44:17;5.60;;;5.00;;
3712;SDS011;1872;51.406;6.856;2024-02-26T07:46:43;5.30;;;4.80;;
3712;SDS011;1872;51.406;6.856;2024-02-26T07:49:09;7.00;;;5.00;;
3712;SDS011;1872;51.406;6.856;2024-02-26T07:51:35;5.13;;;4.67;;
3712;SDS011;1872;51.406;6.856;2024-02-26T07:54:01;5.33;;;4.87;;
3712;SDS011;1872;51.406;6.856;2024-02-26T07:56:27;5.57;;;5.07;;
3712;SDS011;1872;51.406;6.856;2024-02-26T07:58:52;5.40;;;4.87;;
3712;SDS011;1872;51.406;6.856;2024-02-26T08:01:18;7.10;;;4.47;;
3712;SDS011;1872;51.406;6.856;2024-02-26T08:03:44;5.77;;;5.27;;
3712;SDS011;1872;51.406;6.856;2024-02-26T08:06:09;5.90;;;5.30;;
3712;SDS011;1872;51.406;6.856;2024-02-26T08:08:35;5.97;;;5.37;;
3712;SDS011;1872;51.406;6.856;2024-02-26T08:11:02;5.63;;;5.03;;
3712;SDS011;1872;51.406;6.856;2024-02-26T08:13:28;5.37;;;4.87;;
3712;SDS011;1872;51.406;6.856;2024-02-26T08:15:54;5.40;;;4.90;;
3712;SDS011;1872;51.406;6.856;2024-02-26T08:18:21;5.40;;;4.90;;
3712;SDS011;1872;51.406;6.856;2024-02-26T08:20:47;5.47;;;5.03;;
3712;SDS011;1872;51.406;6.856;2024-02-26T08:23:14;6.90;;;5.27;;
3712;SDS011;1872;51.406;6.856;2024-02-26T08:25:39;6.60;;;4.80;;
3712;SDS011;1872;51.406;6.856;2024-02-26T08:28:05;4.83;;;4.43;;
3712;SDS011;1872;51.406;6.856;2024-02-26T08:30:31;5.70;;;5.20;;
3712;SDS011;1872;51.406;6.856;2024-02-26T08:32:56;5.03;;;4.63;;
3712;SDS011;1872;51.406;6.856;2024-02-26T08:35:22;5.53;;;5.03;;
3712;SDS011;1872;51.406;6.856;2024-02-26T08:37:48;5.17;;;4.77;;
3712;SDS011;1872;51.406;6.856;2024-02-26T08:40:14;6.30;;;5.27;;
3712;SDS011;1872;51.406;6.856;2024-02-26T08:42:40;5.17;;;4.77;;
3712;SDS011;1872;51.406;6.856;2024-02-26T08:45:06;7.10;;;5.70;;
3712;SDS011;1872;51.406;6.856;2024-02-26T08:47:33;6.63;;;5.90;;
3712;SDS011;1872;51.406;6.856;2024-02-26T08:49:59;5.57;;;5.07;;
3712;SDS011;1872;51.406;6.856;2024-02-26T08:52:24;7.13;;;5.50;;
3712;SDS011;1872;51.406;6.856;2024-02-26T08:54:50;8.03;;;6.23;;
3712;SDS011;1872;51.406;6.856;2024-02-26T08:57:16;5.77;;;5.13;;
3712;SDS011;1872;51.406;6.856;2024-02-26T08:59:41;6.70;;;6.03;;
3712;SDS011;1872;51.406;6.856;2024-02-26T09:02:07;6.50;;;5.73;;
3712;SDS011;1872;51.406;6.856;2024-02-26T09:04:34;6.57;;;5.97;;
3712;SDS011;1872;51.406;6.856;2024-02-26T09:07:00;8.57;;;5.83;;
3712;SDS011;1872;51.406;6.856;2024-02-26T09:09:27;7.73;;;6.27;;
3712;SDS011;1872;51.406;6.856;2024-02-26T09:11:52;6.27;;;5.73;;
3712;SDS011;1872;51.406;6.856;2024-02-26T09:14:20;5.90;;;5.37;;
3712;SDS011;1872;51.406;6.856;2024-02-26T09:16:46;6.90;;;6.30;;
3712;SDS011;1872;51.406;6.856;2024-02-26T09:19:13;10.23;;;6.60;;
3712;SDS011;1872;51.406;6.856;2024-02-26T09:21:43;5.97;;;5.37;;
3712;SDS011;1872;51.406;6.856;2024-02-26T09:24:10;6.97;;;6.10;;
3712;SDS011;1872;51.406;6.856;2024-02-26T09:26:39;6.77;;;6.13;;
3712;SDS011;1872;51.406;6.856;2024-02-26T09:29:05;6.80;;;6.07;;
3712;SDS011;1872;51.406;6.856;2024-02-26T09:31:32;6.67;;;5.77;;
3712;SDS011;1872;51.406;6.856;2024-02-26T09:33:59;7.07;;;6.37;;
3712;SDS011;1872;51.406;6.856;2024-02-26T09:36:25;6.20;;;5.60;;
3712;SDS011;1872;51.406;6.856;2024-02-26T09:38:50;6.00;;;5.40;;
3712;SDS011;1872;51.406;6.856;2024-02-26T09:41:16;5.40;;;4.90;;
3712;SDS011;1872;51.406;6.856;2024-02-26T09:43:43;9.00;;;5.87;;
3712;SDS011;1872;51.406;6.856;2024-02-26T09:46:13;6.57;;;5.40;;
3712;SDS011;1872;51.406;6.856;2024-02-26T09:48:40;6.60;;;5.60;;
3712;SDS011;1872;51.406;6.856;2024-02-26T09:51:07;5.70;;;5.20;;
3712;SDS011;1872;51.406;6.856;2024-02-26T09:53:39;5.77;;;4.70;;
3712;SDS011;1872;51.406;6.856;2024-02-26T09:56:13;6.20;;;5.60;;
3712;SDS011;1872;51.406;6.856;2024-02-26T09:58:40;6.33;;;5.60;;
3712;SDS011;1872;51.406;6.856;2024-02-26T10:01:11;8.70;;;6.20;;
3712;SDS011;1872;51.406;6.856;2024-02-26T10:03:39;7.03;;;5.80;;
3712;SDS011;1872;51.406;6.856;2024-02-26T10:06:07;7.17;;;6.00;;
3712;SDS011;1872;51.406;6.856;2024-02-26T10:08:34;5.50;;;5.00;;
3712;SDS011;1872;51.406;6.856;2024-02-26T10:11:00;6.63;;;6.00;;
3712;SDS011;1872;51.406;6.856;2024-02-26T10:13:26;7.07;;;5.70;;
3712;SDS011;1872;51.406;6.856;2024-02-26T10:15:52;6.27;;;5.60;;
3712;SDS011;1872;51.406;6.856;2024-02-26T10:18:18;7.27;;;6.47;;
3712;SDS011;1872;51.406;6.856;2024-02-26T10:21:05;10.23;;;6.50;;
3712;SDS011;1872;51.406;6.856;2024-02-26T10:23:30;7.70;;;6.90;;
3712;SDS011;1872;51.406;6.856;2024-02-26T10:25:56;7.67;;;6.90;;
3712;SDS011;1872;51.406;6.856;2024-02-26T10:28:22;8.83;;;6.60;;
3712;SDS011;1872;51.406;6.856;2024-02-26T10:30:48;9.53;;;6.30;;
3712;SDS011;1872;51.406;6.856;2024-02-26T10:33:14;8.33;;;6.50;;
3712;SDS011;1872;51.406;6.856;2024-02-26T10:35:40;7.93;;;6.63;;
3712;SDS011;1872;51.406;6.856;2024-02-26T10:38:11;6.97;;;6.20;;
3712;SDS011;1872;51.406;6.856;2024-02-26T10:40:37;10.07;;;6.97;;
3712;SDS011;1872;51.406;6.856;2024-02-26T10:43:03;6.40;;;5.77;;
3712;SDS011;1872;51.406;6.856;2024-02-26T10:45:29;7.60;;;6.67;;
3712;SDS011;1872;51.406;6.856;2024-02-26T10:47:54;8.10;;;6.67;;
3712;SDS011;1872;51.406;6.856;2024-02-26T10:50:20;8.07;;;7.27;;
3712;SDS011;1872;51.406;6.856;2024-02-26T10:52:46;9.70;;;7.03;;
3712;SDS011;1872;51.406;6.856;2024-02-26T10:55:15;7.87;;;6.73;;
3712;SDS011;1872;51.406;6.856;2024-02-26T10:57:45;7.23;;;6.60;;
3712;SDS011;1872;51.406;6.856;2024-02-26T11:00:15;7.77;;;6.97;;
3712;SDS011;1872;51.406;6.856;2024-02-26T11:02:41;7.97;;;7.20;;
3712;SDS011;1872;51.406;6.856;2024-02-26T11:05:09;8.40;;;7.60;;
3712;SDS011;1872;51.406;6.856;2024-02-26T11:07:37;8.70;;;7.17;;
3712;SDS011;1872;51.406;6.856;2024-02-26T11:10:06;9.00;;;7.23;;
3712;SDS011;1872;51.406;6.856;2024-02-26T11:12:33;9.10;;;7.13;;
3712;SDS011;1872;51.406;6.856;2024-02-26T11:15:03;11.20;;;7.53;;
3712;SDS011;1872;51.406;6.856;2024-02-26T11:17:29;12.00;;;8.87;;
3712;SDS011;1872;51.406;6.856;2024-02-26T11:19:56;8.00;;;7.20;;
3712;SDS011;1872;51.406;6.856;2024-02-26T11:22:27;9.17;;;6.77;;
3712;SDS011;1872;51.406;6.856;2024-02-26T11:24:53;7.80;;;6.77;;
3712;SDS011;1872;51.406;6.856;2024-02-26T11:27:27;9.60;;;7.50;;
3712;SDS011;1872;51.406;6.856;2024-02-26T11:30:08;10.77;;;7.63;;
3712;SDS011;1872;51.406;6.856;2024-02-26T11:32:36;8.27;;;7.30;;
3712;SDS011;1872;51.406;6.856;2024-02-26T11:35:11;8.17;;;7.40;;
3712;SDS011;1872;51.406;6.856;2024-02-26T11:37:40;11.13;;;8.00;;
3712;SDS011;1872;51.406;6.856;2024-02-26T11:40:10;12.00;;;9.13;;
3712;SDS011;1872;51.406;6.856;2024-02-26T11:42:43;9.20;;;8.13;;
3712;SDS011;1872;51.406;6.856;2024-02-26T11:48:23;10.48;;;7.75;;
3712;SDS011;1872;51.406;6.856;2024-02-26T11:53:27;9.17;;;8.27;;
3712;SDS011;1872;51.406;6.856;2024-02-26T11:58:40;11.97;;;8.23;;
3712;SDS011;1872;51.406;6.856;2024-02-26T12:01:35;8.67;;;7.77;;
3712;SDS011;1872;51.406;6.856;2024-02-26T12:04:02;8.00;;;7.20;;
3712;SDS011;1872;51.406;6.856;2024-02-26T12:06:39;10.00;;;8.47;;
3712;SDS011;1872;51.406;6.856;2024-02-26T12:09:07;8.50;;;7.27;;
3712;SDS011;1872;51.406;6.856;2024-02-26T12:11:36;10.33;;;8.60;;
3712;SDS011;1872;51.406;6.856;2024-02-26T12:14:03;11.63;;;8.27;;
3712;SDS011;1872;51.406;6.856;2024-02-26T12:16:39;10.23;;;8.77;;
3712;SDS011;1872;51.406;6.856;2024-02-26T12:19:08;10.83;;;9.73;;
3712;SDS011;1872;51.406;6.856;2024-02-26T12:21:35;11.70;;;9.30;;
3712;SDS011;1872;51.406;6.856;2024-02-26T12:24:11;14.30;;;8.77;;
3712;SDS011;1872;51.406;6.856;2024-02-26T12:26:38;10.97;;;8.70;;
3712;SDS011;1872;51.406;6.856;2024-02-26T12:29:05;10.27;;;8.23;;
3712;SDS011;1872;51.406;6.856;2024-02-26T12:31:34;11.37;;;9.30;;
3712;SDS011;1872;51.406;6.856;2024-02-26T12:34:04;10.23;;;9.13;;
3712;SDS011;1872;51.406;6.856;2024-02-26T12:36:30;9.77;;;8.47;;
3712;SDS011;1872;51.406;6.856;2024-02-26T12:38:56;10.40;;;9.00;;
3712;SDS011;1872;51.406;6.856;2024-02-26T12:41:22;9.73;;;8.10;;
3712;SDS011;1872;51.406;6.856;2024-02-26T12:43:48;11.93;;;9.07;;
3712;SDS011;1872;51.406;6.856;2024-02-26T12:46:14;15.50;;;8.70;;
3712;SDS011;1872;51.406;6.856;2024-02-26T12:48:43;11.80;;;9.07;;
3712;SDS011;1872;51.406;6.856;2024-02-26T12:51:12;11.90;;;9.00;;
3712;SDS011;1872;51.406;6.856;2024-02-26T12:53:40;9.93;;;8.30;;
3712;SDS011;1872;51.406;6.856;2024-02-26T12:56:09;9.33;;;8.40;;
3712;SDS011;1872;51.406;6.856;2024-02-26T12:58:37;11.30;;;8.47;;
3712;SDS011;1872;51.406;6.856;2024-02-26T13:01:05;9.57;;;8.27;;
3712;SDS011;1872;51.406;6.856;2024-02-26T13:03:32;12.07;;;8.50;;
3712;SDS011;1872;51.406;6.856;2024-02-26T13:05:59;15.10;;;8.90;;
3712;SDS011;1872;51.406;6.856;2024-02-26T13:08:26;10.37;;;8.30;;
3712;SDS011;1872;51.406;6.856;2024-02-26T13:10:51;8.03;;;7.23;;
3712;SDS011;1872;51.406;6.856;2024-02-26T13:13:18;11.37;;;7.83;;
3712;SDS011;1872;51.406;6.856;2024-02-26T13:15:45;11.10;;;7.90;;
3712;SDS011;1872;51.406;6.856;2024-02-26T13:18:12;11.30;;;7.20;;
3712;SDS011;1872;51.406;6.856;2024-02-26T13:20:38;10.70;;;8.30;;
3712;SDS011;1872;51.406;6.856;2024-02-26T13:23:08;9.90;;;7.47;;
3712;SDS011;1872;51.406;6.856;2024-02-26T13:25:39;9.87;;;8.57;;
3712;SDS011;1872;51.406;6.856;2024-02-26T13:28:06;8.00;;;7.20;;
3712;SDS011;1872;51.406;6.856;2024-02-26T13:30:41;7.47;;;6.63;;
3712;SDS011;1872;51.406;6.856;2024-02-26T13:33:12;10.60;;;7.13;;
3712;SDS011;1872;51.406;6.856;2024-02-26T13:35:39;7.10;;;6.13;;
3712;SDS011;1872;51.406;6.856;2024-02-26T13:38:05;8.27;;;7.23;;
3712;SDS011;1872;51.406;6.856;2024-02-26T13:40:31;10.10;;;6.70;;
3712;SDS011;1872;51.406;6.856;2024-02-26T13:42:57;7.47;;;6.60;;
3712;SDS011;1872;51.406;6.856;2024-02-26T13:45:23;8.00;;;6.40;;
3712;SDS011;1872;51.406;6.856;2024-02-26T13:47:48;7.60;;;6.87;;
3712;SDS011;1872;51.406;6.856;2024-02-26T13:50:14;9.03;;;6.87;;
3712;SDS011;1872;51.406;6.856;2024-02-26T13:52:40;8.80;;;6.07;;
3712;SDS011;1872;51.406;6.856;2024-02-26T13:55:06;10.23;;;6.27;;
3712;SDS011;1872;51.406;6.856;2024-02-26T13:57:32;8.40;;;7.30;;
3712;SDS011;1872;51.406;6.856;2024-02-26T13:59:58;7.87;;;6.63;;
3712;SDS011;1872;51.406;6.856;2024-02-26T14:02:24;9.60;;;6.83;;
3712;SDS011;1872;51.406;6.856;2024-02-26T14:04:49;7.40;;;6.70;;
3712;SDS011;1872;51.406;6.856;2024-02-26T14:07:15;7.20;;;6.40;;
3712;SDS011;1872;51.406;6.856;2024-02-26T14:09:44;6.13;;;5.53;;
3712;SDS011;1872;51.406;6.856;2024-02-26T14:12:10;6.43;;;5.67;;
3712;SDS011;1872;51.406;6.856;2024-02-26T14:14:36;6.60;;;5.90;;
3712;SDS011;1872;51.406;6.856;2024-02-26T14:17:04;6.43;;;5.40;;
3712;SDS011;1872;51.406;6.856;2024-02-26T14:19:30;5.90;;;5.37;;
3712;SDS011;1872;51.406;6.856;2024-02-26T14:21:56;6.20;;;5.60;;
3712;SDS011;1872;51.406;6.856;2024-02-26T14:24:22;6.40;;;5.40;;
3712;SDS011;1872;51.406;6.856;2024-02-26T14:26:47;6.93;;;6.23;;
3712;SDS011;1872;51.406;6.856;2024-02-26T14:29:13;10.20;;;6.60;;
3712;SDS011;1872;51.406;6.856;2024-02-26T14:31:39;6.53;;;5.60;;
3712;SDS011;1872;51.406;6.856;2024-02-26T14:34:05;6.07;;;5.50;;
3712;SDS011;1872;51.406;6.856;2024-02-26T14:36:32;8.27;;;5.97;;
3712;SDS011;1872;51.406;6.856;2024-02-26T14:38:57;6.50;;;5.90;;
3712;SDS011;1872;51.406;6.856;2024-02-26T14:41:23;6.90;;;6.20;;
3712;SDS011;1872;51.406;6.856;2024-02-26T14:43:49;6.03;;;5.40;;
3712;SDS011;1872;51.406;6.856;2024-02-26T14:46:14;10.30;;;7.00;;
3712;SDS011;1872;51.406;6.856;2024-02-26T14:48:40;8.17;;;6.60;;
3712;SDS011;1872;51.406;6.856;2024-02-26T14:51:06;7.50;;;6.70;;
3712;SDS011;1872;51.406;6.856;2024-02-26T14:53:32;7.77;;;6.40;;
3712;SDS011;1872;51.406;6.856;2024-02-26T14:55:57;12.40;;;7.43;;
3712;SDS011;1872;51.406;6.856;2024-02-26T14:58:24;11.00;;;6.10;;
3712;SDS011;1872;51.406;6.856;2024-02-26T15:00:51;7.60;;;6.20;;
3712;SDS011;1872;51.406;6.856;2024-02-26T15:03:16;6.60;;;5.90;;
3712;SDS011;1872;51.406;6.856;2024-02-26T15:05:42;6.77;;;6.03;;
3712;SDS011;1872;51.406;6.856;2024-02-26T15:08:08;7.57;;;6.27;;
3712;SDS011;1872;51.406;6.856;2024-02-26T15:10:35;7.53;;;6.47;;
3712;SDS011;1872;51.406;6.856;2024-02-26T15:13:01;7.83;;;7.03;;
3712;SDS011;1872;51.406;6.856;2024-02-26T15:15:26;7.27;;;6.30;;
3712;SDS011;1872;51.406;6.856;2024-02-26T15:17:52;5.97;;;5.47;;
3712;SDS011;1872;51.406;6.856;2024-02-26T15:20:18;6.10;;;5.50;;
3712;SDS011;1872;51.406;6.856;2024-02-26T15:22:44;7.30;;;6.10;;
3712;SDS011;1872;51.406;6.856;2024-02-26T15:25:11;6.23;;;5.37;;
3712;SDS011;1872;51.406;6.856;2024-02-26T15:27:37;6.53;;;5.90;;
3712;SDS011;1872;51.406;6.856;2024-02-26T15:30:03;7.53;;;5.77;;
3712;SDS011;1872;51.406;6.856;2024-02-26T15:32:29;6.38;;;5.15;;
3712;SDS011;1872;51.406;6.856;2024-02-26T15:34:54;6.93;;;5.43;;
3712;SDS011;1872;51.406;6.856;2024-02-26T15:37:21;15.13;;;5.27;;
3712;SDS011;1872;51.406;6.856;2024-02-26T15:39:47;6.33;;;5.63;;
3712;SDS011;1872;51.406;6.856;2024-02-26T15:42:13;7.40;;;5.87;;
3712;SDS011;1872;51.406;6.856;2024-02-26T15:44:39;7.20;;;6.50;;
3712;SDS011;1872;51.406;6.856;2024-02-26T15:47:05;5.80;;;5.27;;
3712;SDS011;1872;51.406;6.856;2024-02-26T15:49:32;6.20;;;5.57;;